Time;durP1;ratioP1;P1;durP2;ratioP2;P2;SDS_P1;SDS_P2;PMS_P1;PMS_P2;Temp;Humidity;BMP_temperature;BMP_pressure;BME280_temperature;BME280_humidity;BME280_pressure;Samples;Min_cycle;Max_cycle;Signal;HPM_P1;HPM_P2
2022/05/12 00:01:54;;;;;;;5.80;1.00;;;12.70;99.90;;;;;;5036996;28;20053;-74
2022/05/12 00:04:20;;;;;;;2.80;0.82;;;12.70;99.90;;;;;;5037218;28;20041;-74
2022/05/12 00:06:46;;;;;;;6.35;1.38;;;12.60;99.90;;;;;;5037040;28;20045;-74
2022/05/12 00:09:12;;;;;;;3.60;0.80;;;12.60;99.90;;;;;;5037033;28;20059;-74
2022/05/12 00:11:37;;;;;;;1.83;0.73;;;12.60;99.90;;;;;;5036985;28;20378;-73
2022/05/12 00:14:03;;;;;;;6.13;1.10;;;12.50;99.90;;;;;;5036935;28;20037;-73
2022/05/12 00:16:29;;;;;;;4.22;0.90;;;12.30;99.90;;;;;;5053785;28;20136;-72
2022/05/12 00:18:55;;;;;;;4.20;1.10;;;12.30;99.90;;;;;;5053360;28;20045;-73
2022/05/12 00:21:20;;;;;;;4.00;1.20;;;12.30;99.90;;;;;;5053712;28;20444;-72
2022/05/12 00:23:56;;;;;;;3.10;1.00;;;12.30;99.90;;;;;;5053366;28;20076;-73
2022/05/12 00:26:23;;;;;;;4.82;1.10;;;12.20;99.90;;;;;;5053294;28;20036;-72
2022/05/12 00:28:49;;;;;;;4.63;1.20;;;12.10;99.90;;;;;;5053164;28;20033;-72
2022/05/12 00:31:14;;;;;;;5.32;0.90;;;12.20;99.90;;;;;;5052969;28;20493;-72
2022/05/12 00:33:40;;;;;;;5.82;1.23;;;12.10;99.90;;;;;;5036673;28;20513;-72
2022/05/12 00:36:06;;;;;;;6.45;1.10;;;12.00;99.90;;;;;;5036526;28;20496;-72
2022/05/12 00:38:31;;;;;;;4.55;1.00;;;12.10;99.90;;;;;;5036374;28;20029;-72
2022/05/12 00:40:57;;;;;;;3.67;1.05;;;12.10;99.90;;;;;;5053043;28;20041;-72
2022/05/12 00:43:37;;;;;;;4.20;1.08;;;12.00;99.90;;;;;;5036365;28;20041;-72
2022/05/12 00:46:17;;;;;;;4.85;1.20;;;12.00;99.90;;;;;;5036331;28;20033;-73
2022/05/12 00:48:45;;;;;;;5.05;1.00;;;12.00;99.90;;;;;;5036202;28;20498;-72
2022/05/12 00:51:15;;;;;;;5.93;1.00;;;11.90;99.90;;;;;;5052844;28;20044;-73
2022/05/12 00:53:41;;;;;;;3.60;1.25;;;11.90;99.90;;;;;;5052819;28;20116;-73
2022/05/12 00:56:11;;;;;;;5.88;1.10;;;11.80;99.90;;;;;;5052741;28;20041;-73
2022/05/12 00:58:38;;;;;;;3.63;0.93;;;11.80;99.90;;;;;;5036035;28;20037;-73
2022/05/12 01:01:06;;;;;;;4.40;1.10;;;11.80;99.90;;;;;;5052485;28;20048;-73
2022/05/12 01:03:32;;;;;;;5.18;1.00;;;11.80;99.90;;;;;;5052647;28;20040;-72
2022/05/12 01:05:58;;;;;;;4.88;1.10;;;11.80;99.90;;;;;;5036021;28;20094;-74
2022/05/12 01:08:25;;;;;;;5.03;1.15;;;11.70;99.90;;;;;;5052397;28;20075;-74
2022/05/12 01:10:58;;;;;;;6.25;1.05;;;11.70;99.90;;;;;;5052614;28;20047;-73
2022/05/12 01:13:24;;;;;;;3.78;0.85;;;11.60;99.90;;;;;;5052585;28;20036;-73
2022/05/12 01:16:02;;;;;;;4.65;1.00;;;11.60;99.90;;;;;;5052391;28;20033;-73
2022/05/12 01:18:30;;;;;;;4.63;1.05;;;11.60;99.90;;;;;;5052619;28;20083;-72
2022/05/12 01:20:57;;;;;;;5.78;1.45;;;11.60;99.90;;;;;;5035969;28;20401;-73
2022/05/12 01:23:31;;;;;;;3.08;0.90;;;11.70;99.90;;;;;;5052399;28;20048;-73
2022/05/12 01:26:02;;;;;;;6.13;1.10;;;11.60;99.90;;;;;;5035643;28;20044;-72
2022/05/12 01:28:28;;;;;;;2.75;0.80;;;11.60;99.90;;;;;;5035615;28;20044;-72
2022/05/12 01:30:54;;;;;;;4.18;1.10;;;11.50;99.90;;;;;;5052254;28;20556;-72
2022/05/12 01:33:20;;;;;;;4.00;1.00;;;11.40;99.90;;;;;;5035556;28;20033;-72
2022/05/12 01:35:46;;;;;;;2.50;0.95;;;11.40;99.90;;;;;;5052193;28;20036;-72
2022/05/12 01:38:13;;;;;;;5.60;1.35;;;11.50;99.90;;;;;;5052004;28;20040;-72
2022/05/12 01:40:40;;;;;;;5.78;1.27;;;11.50;99.90;;;;;;5035451;28;20041;-73
2022/05/12 01:43:06;;;;;;;5.80;1.35;;;11.40;99.90;;;;;;5051373;28;20048;-73
2022/05/12 01:45:32;;;;;;;4.82;1.20;;;11.40;99.90;;;;;;5035642;28;20098;-73
2022/05/12 01:47:58;;;;;;;4.97;1.30;;;11.50;99.90;;;;;;5035204;28;20044;-72
2022/05/12 01:50:24;;;;;;;3.78;1.17;;;11.30;99.90;;;;;;5035574;28;20032;-72
2022/05/12 01:52:49;;;;;;;4.80;1.40;;;11.30;99.90;;;;;;5035615;28;20033;-72
2022/05/12 01:55:18;;;;;;;4.38;1.20;;;11.20;99.90;;;;;;5052125;28;20090;-72
2022/05/12 01:57:44;;;;;;;5.40;1.23;;;11.20;99.90;;;;;;5051876;28;20508;-72
2022/05/12 02:00:21;;;;;;;4.88;1.33;;;11.20;99.90;;;;;;5051823;28;20057;-72
2022/05/12 02:02:47;;;;;;;3.90;1.42;;;11.20;99.90;;;;;;5035445;28;20397;-72
2022/05/12 02:05:13;;;;;;;6.30;1.52;;;11.10;99.90;;;;;;5051882;28;20366;-73
2022/05/12 02:07:45;;;;;;;4.63;1.30;;;11.10;99.90;;;;;;5051631;28;20048;-73
2022/05/12 02:10:14;;;;;;;5.95;1.70;;;11.00;99.90;;;;;;5051689;28;20037;-73
2022/05/12 02:12:39;;;;;;;2.50;1.20;;;10.90;99.90;;;;;;5029513;28;20045;-73
2022/05/12 02:15:06;;;;;;;4.47;1.80;;;10.90;99.90;;;;;;5014820;28;20038;-73
2022/05/12 02:17:32;;;;;;;5.57;1.38;;;11.00;99.90;;;;;;5030931;28;20486;-73
2022/05/12 02:19:58;;;;;;;4.47;1.55;;;11.10;99.90;;;;;;5031574;28;20083;-73
2022/05/12 02:22:24;;;;;;;7.68;1.65;;;11.10;99.90;;;;;;5031574;28;20095;-73
2022/05/12 02:24:50;;;;;;;4.85;1.25;;;11.00;99.90;;;;;;5015307;28;20445;-73
2022/05/12 02:27:15;;;;;;;4.10;1.20;;;11.00;99.90;;;;;;5031645;28;20037;-72
2022/05/12 02:29:41;;;;;;;6.20;1.60;;;11.00;99.90;;;;;;5015190;28;20524;-73
2022/05/12 02:32:07;;;;;;;3.65;1.50;;;10.90;99.90;;;;;;5031574;28;20084;-73
2022/05/12 02:34:32;;;;;;;6.97;1.80;;;10.90;99.90;;;;;;5031919;28;20037;-73
2022/05/12 02:37:01;;;;;;;6.43;1.50;;;10.90;99.90;;;;;;5031518;28;20044;-73
2022/05/12 02:39:33;;;;;;;6.35;1.60;;;10.70;99.90;;;;;;5014885;28;20053;-73
2022/05/12 02:41:59;;;;;;;6.40;1.70;;;10.70;99.90;;;;;;5031595;28;20045;-73
2022/05/12 02:44:25;;;;;;;6.18;1.63;;;10.90;99.90;;;;;;5031462;28;20049;-73
2022/05/12 02:46:50;;;;;;;4.55;1.85;;;10.90;99.90;;;;;;5031763;28;20049;-73
2022/05/12 02:49:16;;;;;;;6.45;1.75;;;11.00;99.90;;;;;;5014981;28;20045;-73
2022/05/12 02:51:43;;;;;;;5.88;1.92;;;11.00;99.90;;;;;;5015123;28;20128;-73
2022/05/12 02:54:11;;;;;;;4.30;1.60;;;10.90;99.90;;;;;;5034292;28;20034;-73
2022/05/12 02:56:38;;;;;;;4.55;1.58;;;10.90;99.90;;;;;;5035144;28;20072;-73
2022/05/12 02:59:07;;;;;;;7.00;2.10;;;10.90;99.90;;;;;;5018563;28;20044;-73
2022/05/12 03:01:33;;;;;;;6.40;1.80;;;10.80;99.90;;;;;;5034792;28;20498;-73
2022/05/12 03:03:59;;;;;;;6.00;1.77;;;10.90;99.90;;;;;;5034951;28;20081;-73
2022/05/12 03:06:25;;;;;;;5.25;1.83;;;11.00;99.90;;;;;;5034799;28;20083;-73
2022/05/12 03:08:51;;;;;;;7.95;2.10;;;11.00;99.90;;;;;;5034800;28;20493;-73
2022/05/12 03:11:17;;;;;;;6.90;1.83;;;11.20;99.90;;;;;;5034878;28;20040;-73
2022/05/12 03:13:42;;;;;;;8.07;2.15;;;11.20;99.90;;;;;;5034897;28;20111;-73
2022/05/12 03:16:10;;;;;;;4.75;1.77;;;11.20;99.90;;;;;;5018377;28;20038;-73
2022/05/12 03:18:36;;;;;;;4.75;1.88;;;11.10;99.90;;;;;;5018441;28;20120;-73
2022/05/12 03:21:03;;;;;;;7.03;1.70;;;11.00;99.90;;;;;;5018383;28;20133;-73
2022/05/12 03:23:29;;;;;;;4.85;1.70;;;11.00;99.90;;;;;;5018461;28;20060;-73
2022/05/12 03:25:54;;;;;;;6.07;1.70;;;11.00;99.90;;;;;;5018107;28;20489;-73
2022/05/12 03:28:21;;;;;;;4.40;1.42;;;11.00;99.90;;;;;;5034454;28;20041;-73
2022/05/12 03:30:47;;;;;;;4.40;1.50;;;11.00;99.90;;;;;;5018310;28;20045;-75
2022/05/12 03:33:13;;;;;;;7.75;1.77;;;10.90;99.90;;;;;;5017849;28;20034;-74
2022/05/12 03:35:39;;;;;;;7.75;1.83;;;10.80;99.90;;;;;;5034626;28;20033;-73
2022/05/12 03:38:05;;;;;;;6.00;1.88;;;10.70;99.90;;;;;;5034587;28;20105;-72
2022/05/12 03:40:31;;;;;;;8.50;1.90;;;10.70;99.90;;;;;;5034288;28;20048;-73
2022/05/12 03:43:00;;;;;;;4.28;1.85;;;10.70;99.90;;;;;;5017854;28;20041;-73
2022/05/12 03:45:26;;;;;;;7.85;2.08;;;10.60;99.90;;;;;;5034195;28;20053;-73
2022/05/12 03:47:54;;;;;;;7.82;2.15;;;10.60;99.90;;;;;;5017648;28;20033;-73
2022/05/12 03:50:22;;;;;;;5.88;2.10;;;10.60;99.90;;;;;;5034077;28;20124;-73
2022/05/12 03:52:48;;;;;;;8.18;2.15;;;10.70;99.90;;;;;;5034060;28;20128;-73
2022/05/12 03:55:16;;;;;;;6.00;2.20;;;10.90;99.90;;;;;;5017811;28;20029;-73
2022/05/12 03:57:44;;;;;;;5.70;1.95;;;10.90;99.90;;;;;;5034001;28;20045;-73
2022/05/12 04:00:12;;;;;;;8.77;1.90;;;10.90;99.90;;;;;;5017346;28;20405;-72
2022/05/12 04:02:38;;;;;;;7.10;2.03;;;10.70;99.90;;;;;;5017383;28;20048;-72
2022/05/12 04:05:05;;;;;;;7.82;2.10;;;10.70;99.90;;;;;;5033232;28;20046;-72
2022/05/12 04:07:31;;;;;;;9.05;2.40;;;10.80;99.90;;;;;;5033802;28;20041;-72
2022/05/12 04:10:00;;;;;;;8.50;2.60;;;10.80;99.90;;;;;;5017271;28;20092;-73
2022/05/12 04:12:27;;;;;;;6.50;2.10;;;10.80;99.90;;;;;;5017294;28;20034;-73
2022/05/12 04:14:53;;;;;;;7.88;2.38;;;10.70;99.90;;;;;;5033707;28;20120;-73
2022/05/12 04:17:18;;;;;;;8.23;2.60;;;10.60;99.90;;;;;;5017133;28;20124;-73
2022/05/12 04:19:46;;;;;;;8.35;2.60;;;10.60;99.90;;;;;;5033779;28;20480;-73
2022/05/12 04:22:11;;;;;;;7.80;2.53;;;10.70;99.90;;;;;;5033557;28;20049;-73
2022/05/12 04:24:37;;;;;;;9.02;2.40;;;10.80;99.90;;;;;;5033445;28;20052;-73
2022/05/12 04:27:03;;;;;;;6.82;2.50;;;10.70;99.90;;;;;;5016928;28;20046;-72
2022/05/12 04:29:30;;;;;;;9.93;2.50;;;10.70;99.90;;;;;;5033280;28;20041;-73
2022/05/12 04:31:55;;;;;;;8.02;2.40;;;10.70;99.90;;;;;;5016881;28;20041;-72
2022/05/12 04:37:05;;;;;;;8.90;2.70;;;10.80;99.90;;;;;;5033480;28;20057;-72
2022/05/12 04:39:31;;;;;;;9.15;2.60;;;10.70;99.90;;;;;;5016773;28;20478;-73
2022/05/12 04:41:57;;;;;;;7.93;2.30;;;10.80;99.90;;;;;;5016535;28;20044;-72
2022/05/12 04:44:23;;;;;;;8.60;3.00;;;10.90;99.90;;;;;;5033092;28;20042;-72
2022/05/12 04:46:49;;;;;;;8.00;2.90;;;10.90;99.90;;;;;;5032984;28;20051;-73
2022/05/12 04:49:14;;;;;;;9.10;2.95;;;10.90;99.90;;;;;;5033023;28;20042;-73
2022/05/12 04:51:41;;;;;;;6.93;2.88;;;10.90;99.90;;;;;;5032761;28;20069;-73
2022/05/12 04:54:09;;;;;;;8.40;2.80;;;11.00;99.90;;;;;;5032947;28;20095;-73
2022/05/12 04:56:36;;;;;;;8.73;2.90;;;11.00;99.90;;;;;;5033041;28;20045;-73
2022/05/12 04:59:03;;;;;;;6.90;2.80;;;11.00;99.90;;;;;;5016379;28;20045;-73
2022/05/12 05:01:29;;;;;;;8.73;2.80;;;11.00;99.90;;;;;;5032617;28;20061;-72
2022/05/12 05:03:54;;;;;;;8.98;3.38;;;11.10;99.90;;;;;;5033003;28;20052;-72
2022/05/12 05:06:20;;;;;;;10.82;3.53;;;11.10;99.90;;;;;;5016317;28;20072;-72
2022/05/12 05:08:45;;;;;;;14.02;3.83;;;11.00;99.90;;;;;;5032872;28;20038;-72
2022/05/12 05:11:11;;;;;;;11.32;3.97;;;11.00;99.90;;;;;;5016341;28;20042;-73
2022/05/12 05:13:36;;;;;;;13.95;3.90;;;11.00;99.90;;;;;;5016185;28;20116;-72
2022/05/12 05:16:02;;;;;;;13.05;4.22;;;11.10;99.90;;;;;;5015457;28;20029;-72
2022/05/12 05:18:28;;;;;;;9.95;4.03;;;11.20;99.90;;;;;;5032540;28;20081;-72
2022/05/12 05:20:53;;;;;;;10.43;4.13;;;11.20;99.90;;;;;;5032600;28;20076;-73
2022/05/12 05:23:21;;;;;;;9.20;3.40;;;11.20;99.90;;;;;;5032421;28;20045;-72
2022/05/12 05:25:48;;;;;;;9.50;4.10;;;11.40;99.90;;;;;;5032264;28;20049;-72
2022/05/12 05:28:14;;;;;;;10.55;3.60;;;11.40;99.90;;;;;;5032226;28;20049;-73
2022/05/12 05:30:41;;;;;;;11.75;4.35;;;11.50;99.90;;;;;;5032462;28;20390;-73
2022/05/12 05:33:07;;;;;;;10.02;3.85;;;11.50;99.90;;;;;;5015867;28;20041;-73
2022/05/12 05:35:34;;;;;;;10.68;4.00;;;11.60;99.90;;;;;;5032524;28;20056;-72
2022/05/12 05:38:00;;;;;;;11.75;4.25;;;11.60;99.90;;;;;;5032220;28;20517;-73
2022/05/12 05:40:27;;;;;;;10.45;4.32;;;11.70;99.90;;;;;;5032049;28;20085;-72
2022/05/12 05:42:53;;;;;;;12.02;4.13;;;11.80;99.90;;;;;;5032012;28;20099;-72
2022/05/12 05:45:20;;;;;;;11.35;4.70;;;12.00;99.90;;;;;;5032364;28;20060;-72
2022/05/12 05:47:51;;;;;;;10.32;4.32;;;12.00;99.90;;;;;;5015472;28;20049;-72
2022/05/12 05:50:20;;;;;;;11.93;4.73;;;12.20;99.90;;;;;;5032025;28;20044;-73
2022/05/12 05:55:32;;;;;;;10.52;3.83;;;12.60;99.90;;;;;;5032257;28;20107;-73
2022/05/12 05:57:59;;;;;;;11.93;4.20;;;12.70;99.90;;;;;;5015765;28;20175;-72
2022/05/12 06:00:25;;;;;;;9.20;4.00;;;12.80;99.90;;;;;;5031732;28;20057;-72
2022/05/12 06:02:51;;;;;;;10.57;4.47;;;12.90;99.90;;;;;;5015288;28;20517;-72
2022/05/12 06:05:17;;;;;;;14.52;5.00;;;12.90;99.90;;;;;;5031798;28;20045;-72
2022/05/12 06:07:43;;;;;;;11.75;4.15;;;13.00;99.90;;;;;;5015304;28;20038;-72
2022/05/12 06:10:09;;;;;;;10.68;4.00;;;13.00;99.90;;;;;;5015378;28;20048;-72
2022/05/12 06:12:35;;;;;;;13.02;4.47;;;13.20;99.90;;;;;;5031982;28;20124;-73
2022/05/12 06:15:01;;;;;;;10.20;4.00;;;13.30;99.90;;;;;;5032022;28;20049;-72
2022/05/12 06:17:27;;;;;;;9.18;4.22;;;13.30;99.90;;;;;;5031978;28;20037;-72
2022/05/12 06:19:54;;;;;;;11.98;4.00;;;13.30;99.90;;;;;;5031672;28;20128;-73
2022/05/12 06:22:20;;;;;;;10.15;3.75;;;13.50;99.90;;;;;;5015222;28;20037;-73
2022/05/12 06:24:47;;;;;;;11.27;3.80;;;13.70;99.90;;;;;;5031748;28;20133;-73
2022/05/12 06:27:14;;;;;;;11.80;4.45;;;13.80;99.90;;;;;;5031719;28;20042;-73
2022/05/12 06:29:41;;;;;;;10.40;4.40;;;13.80;99.90;;;;;;5019187;28;20037;-73
2022/05/12 06:32:07;;;;;;;12.65;4.00;;;13.70;99.90;;;;;;5035527;28;20045;-73
2022/05/12 06:34:34;;;;;;;9.80;4.03;;;13.90;99.90;;;;;;5019125;28;20502;-73
2022/05/12 06:36:59;;;;;;;12.95;3.92;;;14.00;99.90;;;;;;5019046;28;20508;-72
2022/05/12 06:39:26;;;;;;;14.13;4.38;;;14.00;99.90;;;;;;5035574;28;20045;-73
2022/05/12 06:41:53;;;;;;;9.25;3.38;;;14.10;99.90;;;;;;5035315;28;20052;-73
2022/05/12 06:44:19;;;;;;;12.85;5.10;;;14.10;99.90;;;;;;5035447;28;20049;-73
2022/05/12 06:46:44;;;;;;;9.43;3.72;;;14.20;99.90;;;;;;5018862;28;20049;-72
2022/05/12 06:49:10;;;;;;;8.82;3.60;;;14.20;99.90;;;;;;5035272;28;20044;-73
2022/05/12 06:51:37;;;;;;;11.27;3.97;;;14.30;99.90;;;;;;5018664;28;20124;-72
2022/05/12 06:54:03;;;;;;;9.20;3.70;;;14.30;99.90;;;;;;5018952;28;20460;-72
2022/05/12 06:56:29;;;;;;;7.45;3.47;;;14.40;99.90;;;;;;5018834;28;20037;-72
2022/05/12 06:58:54;;;;;;;10.00;3.67;;;14.40;99.90;;;;;;5035567;28;20401;-73
2022/05/12 07:01:20;;;;;;;9.90;4.40;;;14.40;99.90;;;;;;5034960;28;20041;-73
2022/05/12 07:03:46;;;;;;;10.82;3.70;;;14.40;99.90;;;;;;5018646;28;20120;-73
2022/05/12 07:06:12;;;;;;;10.10;3.45;;;14.40;99.90;;;;;;5018433;28;20037;-72
2022/05/12 07:08:42;;;;;;;9.18;3.80;;;14.50;99.90;;;;;;5034909;28;20445;-73
2022/05/12 07:11:09;;;;;;;12.38;3.30;;;14.50;99.90;;;;;;5035143;28;20060;-73
2022/05/12 07:13:35;;;;;;;9.27;3.35;;;14.60;99.90;;;;;;5035030;28;20128;-72
2022/05/12 07:16:02;;;;;;;10.50;3.03;;;14.80;99.90;;;;;;5018282;28;20128;-73
2022/05/12 07:18:28;;;;;;;8.18;3.00;;;14.90;99.90;;;;;;5035036;28;20051;-73
2022/05/12 07:26:39;;;;;;;6.85;2.20;;;15.00;99.90;;;;;;5034550;28;20049;-73
2022/05/12 07:29:09;;;;;;;6.32;1.77;;;15.10;99.90;;;;;;5034623;28;20045;-73
2022/05/12 07:31:35;;;;;;;9.75;2.55;;;15.20;99.90;;;;;;5034446;28;20493;-73
2022/05/12 07:34:00;;;;;;;9.10;2.25;;;15.10;99.90;;;;;;5017906;28;20064;-73
2022/05/12 07:36:29;;;;;;;7.05;2.00;;;15.20;99.90;;;;;;5034406;28;20040;-73
2022/05/12 07:38:56;;;;;;;7.43;2.35;;;15.20;99.90;;;;;;5017361;28;20052;-74
2022/05/12 07:41:23;;;;;;;7.90;2.30;;;15.40;99.90;;;;;;5033927;28;20037;-73
2022/05/12 07:43:48;;;;;;;6.28;1.95;;;15.50;99.90;;;;;;5017796;28;20529;-73
2022/05/12 07:46:17;;;;;;;7.78;2.35;;;15.60;99.90;;;;;;5034243;28;20041;-73
2022/05/12 07:48:43;;;;;;;6.55;1.95;;;15.70;99.90;;;;;;5017635;28;20092;-73
2022/05/12 07:51:08;;;;;;;10.40;2.20;;;15.70;99.90;;;;;;5017671;28;20091;-73
2022/05/12 07:53:37;;;;;;;9.00;2.20;;;15.70;99.90;;;;;;5017436;28;20496;-73
2022/05/12 07:56:03;;;;;;;9.48;2.10;;;15.80;99.90;;;;;;5017518;28;20041;-73
2022/05/12 07:58:29;;;;;;;7.85;2.30;;;15.90;99.90;;;;;;5034261;28;20053;-73
2022/05/12 08:00:55;;;;;;;6.10;1.88;;;15.90;99.90;;;;;;5017438;28;20053;-73
2022/05/12 08:03:22;;;;;;;8.05;2.03;;;16.00;99.90;;;;;;5033724;28;20175;-73
2022/05/12 08:05:48;;;;;;;7.95;2.00;;;16.10;99.90;;;;;;5017388;28;20037;-73
2022/05/12 08:08:14;;;;;;;7.07;2.65;;;16.10;99.90;;;;;;5033646;28;20133;-73
2022/05/12 08:10:40;;;;;;;8.38;2.40;;;16.30;99.90;;;;;;5033825;28;20117;-73
2022/05/12 08:13:14;;;;;;;5.28;1.63;;;16.40;99.90;;;;;;5033543;28;20191;-73
2022/05/12 08:15:50;;;;;;;8.02;2.30;;;16.50;99.90;;;;;;5017320;28;20037;-73
2022/05/12 08:18:21;;;;;;;7.97;1.85;;;16.30;99.90;;;;;;5033666;28;20052;-73
2022/05/12 08:20:48;;;;;;;7.27;2.00;;;16.50;99.90;;;;;;5033602;28;20553;-74
2022/05/12 08:23:14;;;;;;;7.10;1.85;;;16.40;99.90;;;;;;5033427;28;20128;-73
2022/05/12 08:25:41;;;;;;;7.82;1.98;;;16.30;99.90;;;;;;5017274;28;20465;-73
2022/05/12 08:28:07;;;;;;;7.05;1.95;;;16.30;99.90;;;;;;5016851;28;20048;-73
2022/05/12 08:30:33;;;;;;;9.50;1.98;;;16.10;99.90;;;;;;5016872;28;20120;-74
2022/05/12 08:33:00;;;;;;;8.13;1.45;;;16.20;99.90;;;;;;5016883;28;20091;-74
2022/05/12 08:35:26;;;;;;;8.98;1.80;;;16.40;99.90;;;;;;5033319;28;20481;-73
2022/05/12 08:37:52;;;;;;;6.50;1.70;;;16.50;99.90;;;;;;5033592;28;20091;-74
2022/05/12 08:40:52;;;;;;;4.78;1.63;;;16.50;99.90;;;;;;5033307;28;20045;-74
2022/05/12 08:43:36;;;;;;;7.43;1.92;;;16.70;99.90;;;;;;5033119;28;20045;-74
2022/05/12 08:46:11;;;;;;;8.25;1.92;;;16.80;99.90;;;;;;5016757;28;20182;-74
2022/05/12 08:48:40;;;;;;;5.90;1.35;;;17.00;99.90;;;;;;5033050;28;20045;-74
2022/05/12 08:51:07;;;;;;;9.32;1.40;;;16.90;99.90;;;;;;5033120;28;20042;-74
2022/05/12 08:53:43;;;;;;;5.30;1.50;;;16.80;99.90;;;;;;5032900;28;20078;-74
2022/05/12 08:56:09;;;;;;;7.07;1.45;;;16.90;99.90;;;;;;5016633;28;20041;-74
2022/05/12 08:58:38;;;;;;;7.18;1.75;;;16.80;99.90;;;;;;5033114;28;20044;-74
2022/05/12 09:01:13;;;;;;;7.40;1.45;;;16.70;99.90;;;;;;5016595;28;20367;-74
2022/05/12 09:03:48;;;;;;;5.47;1.50;;;16.80;99.90;;;;;;5032696;28;20091;-74
2022/05/12 09:06:24;;;;;;;5.78;1.38;;;16.80;99.90;;;;;;5016271;28;20490;-74
2022/05/12 09:09:02;;;;;;;5.88;1.25;;;16.90;99.90;;;;;;5032729;28;20406;-74
2022/05/12 09:11:38;;;;;;;6.07;1.55;;;17.10;99.90;;;;;;5032721;28;20085;-74
2022/05/12 09:14:12;;;;;;;7.07;1.40;;;17.00;99.90;;;;;;5032577;28;20042;-74
2022/05/12 09:16:38;;;;;;;4.93;1.23;;;16.80;99.90;;;;;;5016149;28;20052;-74
2022/05/12 09:19:04;;;;;;;5.13;1.48;;;16.90;99.90;;;;;;5032696;28;20037;-74
2022/05/12 09:21:33;;;;;;;6.65;1.67;;;17.10;99.90;;;;;;5016001;28;20037;-74
2022/05/12 09:24:00;;;;;;;5.57;1.40;;;17.10;99.90;;;;;;5032354;28;20212;-74
2022/05/12 09:26:37;;;;;;;8.02;1.48;;;17.20;99.90;;;;;;5015908;28;20505;-74
2022/05/12 09:29:26;;;;;;;6.03;1.80;;;17.30;99.90;;;;;;5032444;28;20045;-74
2022/05/12 09:32:12;;;;;;;7.47;1.90;;;17.60;99.90;;;;;;5032554;28;20045;-74
2022/05/12 09:34:41;;;;;;;5.43;1.40;;;17.40;99.90;;;;;;5008733;28;20051;-74
2022/05/12 09:37:13;;;;;;;5.10;1.42;;;17.40;99.90;;;;;;5032540;28;20390;-74
2022/05/12 09:39:45;;;;;;;7.03;1.63;;;17.40;99.90;;;;;;5032562;28;20195;-74
2022/05/12 09:42:27;;;;;;;7.55;1.90;;;17.40;99.90;;;;;;5032419;28;20037;-74
2022/05/12 09:45:31;;;;;;;5.63;1.50;;;17.30;99.90;;;;;;5015665;28;20042;-74
2022/05/12 09:48:15;;;;;;;8.60;1.60;;;17.30;99.90;;;;;;5032055;28;20124;-74
2022/05/12 09:50:40;;;;;;;7.65;1.60;;;17.20;99.90;;;;;;5015894;28;20087;-74
2022/05/12 09:53:08;;;;;;;5.93;1.75;;;17.10;99.90;;;;;;5031972;28;20037;-74
2022/05/12 09:55:42;;;;;;;8.68;2.13;;;17.00;99.90;;;;;;5015607;28;20117;-74
2022/05/12 09:58:14;;;;;;;6.30;2.00;;;16.90;99.90;;;;;;5032192;28;20041;-74
2022/05/12 10:01:03;;;;;;;9.07;1.60;;;17.00;99.90;;;;;;5015321;28;20497;-74
2022/05/12 10:09:23;;;;;;;5.78;1.50;;;16.90;99.90;;;;;;5031787;28;20053;-74
2022/05/12 10:12:19;;;;;;;4.32;1.40;;;17.00;99.90;;;;;;5015462;28;20168;-74
2022/05/12 10:14:50;;;;;;;4.43;1.30;;;17.30;99.90;;;;;;5015600;28;20046;-74
2022/05/12 10:17:33;;;;;;;6.30;1.77;;;17.40;99.90;;;;;;5015619;28;20486;-74
2022/05/12 10:20:08;;;;;;;5.38;1.30;;;17.50;99.90;;;;;;5031759;28;20090;-74
2022/05/12 10:23:00;;;;;;;6.28;1.52;;;17.70;98.60;;;;;;5031809;28;20611;-74
2022/05/12 10:25:57;;;;;;;6.45;1.63;;;17.60;98.00;;;;;;5008044;28;20511;-74
2022/05/12 10:28:50;;;;;;;5.65;1.27;;;17.60;99.30;;;;;;5015303;28;20513;-74
2022/05/12 10:31:28;;;;;;;10.20;1.70;;;17.70;99.90;;;;;;5015261;28;20041;-74
2022/05/12 10:34:08;;;;;;;13.02;2.13;;;17.80;99.90;;;;;;5031562;28;20033;-74
2022/05/12 10:36:42;;;;;;;8.38;1.50;;;18.00;99.90;;;;;;5015399;28;20037;-74
2022/05/12 10:39:12;;;;;;;4.25;1.27;;;18.00;98.30;;;;;;5031640;28;20052;-74
2022/05/12 10:41:55;;;;;;;9.25;2.00;;;18.10;99.00;;;;;;5031566;28;20033;-74
2022/05/12 10:44:46;;;;;;;7.45;1.58;;;18.20;98.10;;;;;;5015314;28;20063;-74
2022/05/12 10:47:21;;;;;;;6.78;1.58;;;17.90;98.90;;;;;;5031580;28;20525;-74
2022/05/12 10:50:05;;;;;;;7.35;1.60;;;17.50;98.50;;;;;;5031709;28;20033;-74
2022/05/12 10:52:33;;;;;;;7.43;1.65;;;17.40;99.50;;;;;;5031928;28;20398;-74
2022/05/12 10:55:31;;;;;;;8.05;1.60;;;17.50;99.30;;;;;;5015063;28;20044;-74
2022/05/12 10:58:19;;;;;;;5.93;1.65;;;17.70;99.90;;;;;;5007179;28;20064;-74
2022/05/12 11:01:16;;;;;;;6.03;1.60;;;18.00;99.90;;;;;;5014955;28;20084;-74
2022/05/12 11:04:00;;;;;;;6.32;1.65;;;18.20;99.90;;;;;;5015036;28;20137;-74
2022/05/12 11:06:33;;;;;;;5.10;1.50;;;18.10;98.40;;;;;;5031422;28;20501;-74
2022/05/12 11:09:15;;;;;;;5.07;1.52;;;18.10;98.00;;;;;;5031409;28;20128;-74
2022/05/12 11:11:45;;;;;;;5.15;1.48;;;18.20;99.90;;;;;;5014990;28;20498;-74
2022/05/12 11:14:22;;;;;;;4.57;1.50;;;18.50;97.40;;;;;;5014959;28;20042;-74
2022/05/12 11:17:03;;;;;;;4.30;1.08;;;18.50;95.30;;;;;;5018641;28;20041;-74
2022/05/12 11:19:28;;;;;;;3.20;1.48;;;18.70;94.10;;;;;;5018694;28;20041;-74
2022/05/12 11:22:24;;;;;;;3.10;1.05;;;18.70;92.10;;;;;;5034719;28;20548;-74
2022/05/12 11:24:57;;;;;;;4.50;0.95;;;18.60;94.30;;;;;;5034917;28;20105;-74
2022/05/12 11:27:29;;;;;;;6.55;1.10;;;18.70;93.10;;;;;;5034734;28;20045;-75
2022/05/12 11:30:23;;;;;;;5.72;1.25;;;18.70;92.10;;;;;;5018393;28;20126;-75
2022/05/12 11:33:18;;;;;;;5.13;1.30;;;18.80;92.00;;;;;;5034849;28;20049;-74
2022/05/12 11:35:48;;;;;;;4.68;1.20;;;18.80;92.70;;;;;;5034874;28;20375;-75
2022/05/12 11:38:37;;;;;;;5.35;1.00;;;18.90;90.20;;;;;;5034597;28;20053;-74
2022/05/12 11:41:03;;;;;;;3.47;1.10;;;19.00;83.90;;;;;;5018015;28;20573;-74
2022/05/12 11:46:47;;;;;;;3.55;0.90;;;19.00;88.60;;;;;;5034231;28;20041;-74
2022/05/12 11:49:49;;;;;;;5.65;1.00;;;18.90;88.40;;;;;;5034799;28;20397;-74
2022/05/12 11:52:30;;;;;;;6.10;1.40;;;18.80;93.30;;;;;;5034716;28;20045;-74
2022/05/12 11:55:18;;;;;;;4.18;1.02;;;19.10;93.40;;;;;;5017929;28;20110;-74
2022/05/12 11:57:54;;;;;;;4.55;1.10;;;19.00;91.30;;;;;;5034086;28;20049;-74
2022/05/12 12:00:35;;;;;;;6.30;1.40;;;18.70;90.40;;;;;;5034203;28;20512;-75
2022/05/12 12:03:19;;;;;;;3.60;1.08;;;18.70;83.60;;;;;;5034143;28;20485;-74
2022/05/12 12:05:50;;;;;;;4.13;1.10;;;18.80;90.80;;;;;;5017648;28;20045;-74
2022/05/12 12:08:31;;;;;;;5.25;1.13;;;18.90;84.70;;;;;;5033807;28;20037;-75
2022/05/12 12:11:15;;;;;;;3.83;0.90;;;18.90;81.70;;;;;;5019702;28;20076;-76
2022/05/12 12:13:43;;;;;;;3.80;0.90;;;18.80;87.10;;;;;;5017559;28;20053;-76
2022/05/12 12:16:24;;;;;;;4.53;0.82;;;19.10;79.30;;;;;;5033757;28;20033;-75
2022/05/12 12:18:57;;;;;;;3.30;1.08;;;19.10;82.10;;;;;;5034004;28;20083;-75
2022/05/12 12:21:35;;;;;;;4.53;1.02;;;19.00;77.90;;;;;;5017424;28;20041;-77
2022/05/12 12:24:19;;;;;;;4.70;1.10;;;19.20;81.70;;;;;;5033718;28;20129;-75
2022/05/12 12:26:49;;;;;;;5.03;1.35;;;19.10;86.20;;;;;;5033467;28;20374;-75
2022/05/12 12:29:21;;;;;;;5.68;1.30;;;19.30;71.60;;;;;;5033523;28;20076;-75
2022/05/12 12:31:49;;;;;;;5.88;1.10;;;19.10;75.30;;;;;;5033649;28;20033;-75
2022/05/12 12:34:26;;;;;;;4.63;0.95;;;18.80;83.20;;;;;;5033716;28;20405;-75
2022/05/12 12:37:09;;;;;;;4.63;1.25;;;18.70;78.30;;;;;;5016818;28;20073;-76
2022/05/12 12:39:47;;;;;;;4.55;1.10;;;18.50;83.60;;;;;;5034829;28;20147;-75
2022/05/12 12:42:30;;;;;;;5.05;1.23;;;18.60;83.30;;;;;;5033611;28;20370;-75
2022/05/12 12:45:12;;;;;;;2.83;0.80;;;18.50;80.30;;;;;;5016789;28;20112;-76
2022/05/12 12:47:49;;;;;;;2.85;0.80;;;18.60;91.00;;;;;;5016580;28;20076;-75
2022/05/12 12:50:33;;;;;;;5.53;1.23;;;18.60;85.30;;;;;;5016655;28;20063;-76
2022/05/12 12:52:59;;;;;;;3.90;1.10;;;18.60;83.80;;;;;;5016578;28;20116;-76
2022/05/12 12:58:28;;;;;;;17.10;4.18;;;18.60;79.40;;;;;;5032836;28;20501;-76
2022/05/12 13:00:59;;;;;;;5.13;1.17;;;18.60;83.30;;;;;;5032974;28;20480;-76
2022/05/12 13:03:30;;;;;;;5.28;1.10;;;18.50;76.80;;;;;;5016435;28;20121;-76
2022/05/12 13:06:16;;;;;;;6.22;1.15;;;18.40;72.40;;;;;;5032790;28;20045;-75
2022/05/12 13:08:42;;;;;;;4.68;1.20;;;18.40;77.20;;;;;;5032873;28;20089;-76
2022/05/12 13:11:16;;;;;;;5.65;1.60;;;18.60;80.40;;;;;;5016270;28;20037;-76
2022/05/12 13:13:50;;;;;;;5.80;1.20;;;18.80;78.10;;;;;;5032532;28;20033;-76
2022/05/12 13:16:19;;;;;;;5.72;1.38;;;18.80;80.90;;;;;;5016014;28;20045;-76
2022/05/12 13:18:52;;;;;;;5.90;1.30;;;18.30;70.40;;;;;;5032909;28;20131;-76
2022/05/12 13:21:26;;;;;;;5.72;1.27;;;18.00;73.20;;;;;;5016159;28;20042;-76
2022/05/12 13:24:19;;;;;;;3.65;1.10;;;17.90;75.60;;;;;;5016028;28;20048;-76
2022/05/12 13:26:48;;;;;;;5.32;1.38;;;18.10;85.20;;;;;;5032249;28;20053;-75